Eiwa Maru — JG5742 — position and weather

sailwx.info

Track history (hours):
 
Tides and Currents Weather Stations Pressure Air Temp Water Temp Dewpoint Dewpoint Depression Visibility Wind Speed Wind Dir Waves Ship Positions

Eiwa Maru

Last reported at 2017-Nov-19 03:03 UTC. Time now 2017-Nov-22 15:02 UTC.
Position N 34°60' E 139°27'.

Length 80 m; draft 5.4 m.

Type: Ship (hazmat cat A). MMSI: 431101045.

Date/timePositionNaut miles runAvg speedWind from/ knotsBaromVisibWave heightAir tempDewpointWater temp
2017-Nov-19 03:03N 34°60' E 139°27'113.1
2017-Nov-19 02:58N 35°00' E 139°28'612.8
2017-Nov-19 02:29N 35°03' E 139°34'612.9
2017-Nov-19 02:00N 35°07' E 139°41'713.3
2017-Nov-19 01:30N 35°12' E 139°46'612.3
2017-Nov-19 01:00N 35°18' E 139°44'611.9
2017-Nov-19 00:30N 35°24' E 139°43'612.9
2017-Nov-19 00:00N 35°28' E 139°49'612.9
2017-Nov-18 23:30N 35°31' E 139°56'5 0.6
2017-Nov-18 15:12N 35°32' E 140°01'0 0.0
2017-Nov-18 14:48N 35°32' E 140°01'4 0.1
2017-Nov-16 20:13N 35°31' E 139°57'212.1
2017-Nov-16 20:00N 35°30' E 139°54'612.1
2017-Nov-16 19:30N 35°26' E 139°49'612.0
2017-Nov-16 19:00N 35°21' E 139°45'611.8
2017-Nov-16 18:31N 35°15' E 139°47'612.5
2017-Nov-16 18:01N 35°09' E 139°46'612.5
2017-Nov-16 17:30N 35°03' E 139°42'612.6
2017-Nov-16 17:00N 34°59' E 139°36'  
2017-Nov-14 11:42N 34°49' E 139°09'1612.1
2017-Nov-14 10:21N 34°59' E 139°25'512.5
2017-Nov-14 09:58N 35°01' E 139°30'612.3
2017-Nov-14 09:30N 35°05' E 139°36'612.8
2017-Nov-14 09:00N 35°08' E 139°42'713.1
2017-Nov-14 08:30N 35°14' E 139°46'612.8
2017-Nov-14 08:00N 35°20' E 139°43'612.1
2017-Nov-14 07:30N 35°26' E 139°45'713.1
2017-Nov-14 07:00N 35°30' E 139°51'  
2017-Nov-11 20:58N 35°31' E 139°56'612.1
2017-Nov-11 20:31N 35°27' E 139°50'611.9
2017-Nov-11 20:01N 35°23' E 139°46'611.0
2017-Nov-11 19:31N 35°17' E 139°45'611.1
2017-Nov-11 19:00N 35°12' E 139°47'611.5
2017-Nov-11 18:30N 35°06' E 139°45'611.5
2017-Nov-11 18:00N 35°02' E 139°40'242 4.9
2017-Nov-09 16:53N 33°57' E 134°57'  
Track history (hours):
 
Tides and Currents Weather Stations Pressure Air Temp Water Temp Dewpoint Dewpoint Depression Visibility Wind Speed Wind Dir Waves Ship Positions

Eiwa Maru

Last reported at 2017-Nov-19 03:03 UTC. Time now 2017-Nov-22 15:03 UTC.
Position N 34°60' E 139°27'.

Length 80 m; draft 5.4 m.

Type: Ship (hazmat cat A). MMSI: 431101045.

Date/timePositionNaut miles runAvg speedWind from/ knotsBaromVisibWave heightAir tempDewpointWater temp
2017-Nov-19 03:03N 34°60' E 139°27'113.1
2017-Nov-19 02:58N 35°00' E 139°28'612.8
2017-Nov-19 02:29N 35°03' E 139°34'612.9
2017-Nov-19 02:00N 35°07' E 139°41'713.3
2017-Nov-19 01:30N 35°12' E 139°46'612.3
2017-Nov-19 01:00N 35°18' E 139°44'611.9
2017-Nov-19 00:30N 35°24' E 139°43'612.9
2017-Nov-19 00:00N 35°28' E 139°49'612.9
2017-Nov-18 23:30N 35°31' E 139°56'5 0.6
2017-Nov-18 15:12N 35°32' E 140°01'0 0.0
2017-Nov-18 14:48N 35°32' E 140°01'4 0.1
2017-Nov-16 20:13N 35°31' E 139°57'212.1
2017-Nov-16 20:00N 35°30' E 139°54'612.1
2017-Nov-16 19:30N 35°26' E 139°49'612.0
2017-Nov-16 19:00N 35°21' E 139°45'611.8
2017-Nov-16 18:31N 35°15' E 139°47'612.5
2017-Nov-16 18:01N 35°09' E 139°46'612.5
2017-Nov-16 17:30N 35°03' E 139°42'612.6
2017-Nov-16 17:00N 34°59' E 139°36'  
2017-Nov-14 11:42N 34°49' E 139°09'1612.1
2017-Nov-14 10:21N 34°59' E 139°25'512.5
2017-Nov-14 09:58N 35°01' E 139°30'612.3
2017-Nov-14 09:30N 35°05' E 139°36'612.8
2017-Nov-14 09:00N 35°08' E 139°42'713.1
2017-Nov-14 08:30N 35°14' E 139°46'612.8
2017-Nov-14 08:00N 35°20' E 139°43'612.1
2017-Nov-14 07:30N 35°26' E 139°45'713.1
2017-Nov-14 07:00N 35°30' E 139°51'  
2017-Nov-11 20:58N 35°31' E 139°56'612.1
2017-Nov-11 20:31N 35°27' E 139°50'611.9
2017-Nov-11 20:01N 35°23' E 139°46'611.0
2017-Nov-11 19:31N 35°17' E 139°45'611.1
2017-Nov-11 19:00N 35°12' E 139°47'611.5
2017-Nov-11 18:30N 35°06' E 139°45'611.5
2017-Nov-11 18:00N 35°02' E 139°40'242 4.9
2017-Nov-09 16:53N 33°57' E 134°57'  

Dump ship's entire track history